Time;durP1;ratioP1;P1;durP2;ratioP2;P2;SDS_P1;SDS_P2;PMS_P1;PMS_P2;Temp;Humidity;BMP_temperature;BMP_pressure;BME280_temperature;BME280_humidity;BME280_pressure;Samples;Min_cycle;Max_cycle;Signal;HPM_P1;HPM_P2
2022/08/10 01:02:31;;;;;;;;;;;;;;;22.09;36.25;100460.41;1086499;54;21357;-79
2022/08/10 01:03:38;;;;;;;;;;;;;;;22.05;36.14;100461.03;1088646;46;19943;-78
2022/08/10 01:04:39;;;;;;;;;;;;;;;21.95;36.63;100464.19;1088032;54;20003;-79
2022/08/10 01:05:47;;;;;;;;;;;;;;;21.96;36.72;100466.69;1087987;54;19950;-79
2022/08/10 01:06:52;;;;;;;;;;;;;;;21.94;36.51;100463.34;1088025;54;19957;-80
2022/08/10 01:08:12;;;;;;;;;;;;;;;21.90;36.84;100461.25;1088021;54;20027;-78
2022/08/10 01:09:19;;;;;;;;;;;;;;;21.89;36.91;100463.16;1087989;54;19950;-79
2022/08/10 01:10:29;;;;;;;;;;;;;;;21.88;36.72;100464.19;1088038;54;19954;-81
2022/08/10 01:11:34;;;;;;;;;;;;;;;21.86;37.12;100462.72;1087934;54;19966;-81
2022/08/10 01:12:43;;;;;;;;;;;;;;;21.83;36.91;100474.84;1087960;54;19949;-78
2022/08/10 01:13:47;;;;;;;;;;;;;;;21.85;36.76;100472.75;1087887;54;19945;-79
2022/08/10 01:14:54;;;;;;;;;;;;;;;21.81;36.90;100466.91;1087902;54;20844;-78
2022/08/10 01:16:00;;;;;;;;;;;;;;;21.81;36.98;100471.53;1087975;54;19943;-79
2022/08/10 01:17:08;;;;;;;;;;;;;;;21.81;37.24;100472.34;1087992;54;20298;-80
2022/08/10 01:18:13;;;;;;;;;;;;;;;21.77;37.16;100472.97;1088045;54;19938;-78
2022/08/10 01:19:27;;;;;;;;;;;;;;;21.77;37.04;100470.25;1087953;54;19950;-78
2022/08/10 01:20:36;;;;;;;;;;;;;;;21.74;37.47;100478.81;1089412;39;20921;-79
2022/08/10 01:21:50;;;;;;;;;;;;;;;21.74;37.11;100470.66;1088098;54;19950;-79
2022/08/10 01:23:06;;;;;;;;;;;;;;;21.74;37.43;100466.06;1089467;46;19939;-78
2022/08/10 01:24:28;;;;;;;;;;;;;;;21.72;37.25;100468.16;1088041;54;19942;-79
2022/08/10 01:25:40;;;;;;;;;;;;;;;21.72;37.40;100472.78;1090325;39;20612;-79
2022/08/10 01:26:58;;;;;;;;;;;;;;;21.74;37.49;100470.66;1088433;54;19942;-78
2022/08/10 01:28:03;;;;;;;;;;;;;;;21.70;37.27;100475.69;1088420;54;19962;-79
2022/08/10 01:29:18;;;;;;;;;;;;;;;21.66;37.56;100471.72;1088403;54;19949;-81
2022/08/10 01:30:25;;;;;;;;;;;;;;;21.64;37.42;100471.09;1088379;54;20594;-80
2022/08/10 01:31:29;;;;;;;;;;;;;;;21.68;37.54;100469.59;1088285;54;19947;-79
2022/08/10 01:32:37;;;;;;;;;;;;;;;21.69;37.58;100474.00;1088445;54;19935;-80
2022/08/10 01:33:42;;;;;;;;;;;;;;;21.69;37.50;100474.00;1089811;39;20608;-79
2022/08/10 01:34:48;;;;;;;;;;;;;;;21.70;37.39;100474.84;1088424;54;20614;-79
2022/08/10 01:35:55;;;;;;;;;;;;;;;21.69;37.75;100475.91;1088434;54;19942;-81
2022/08/10 01:37:01;;;;;;;;;;;;;;;21.68;37.40;100471.50;1088453;54;19943;-80
2022/08/10 01:38:07;;;;;;;;;;;;;;;21.64;37.65;100466.47;1088405;54;19943;-79
2022/08/10 01:39:11;;;;;;;;;;;;;;;21.66;37.62;100474.44;1088304;54;20757;-81
2022/08/10 01:40:17;;;;;;;;;;;;;;;21.65;37.87;100467.31;1088970;46;19942;-80
2022/08/10 01:41:20;;;;;;;;;;;;;;;21.69;37.83;100473.19;1085196;54;19954;-76
2022/08/10 01:42:25;;;;;;;;;;;;;;;21.74;37.29;100471.50;1084806;54;19954;-75
2022/08/10 01:43:27;;;;;;;;;;;;;;;21.82;37.42;100465.03;1084767;54;20007;-75
2022/08/10 01:44:32;;;;;;;;;;;;;;;21.84;37.05;100472.97;1084971;54;19938;-75
2022/08/10 01:45:36;;;;;;;;;;;;;;;21.84;37.42;100467.53;1084492;54;19973;-74
2022/08/10 01:46:42;;;;;;;;;;;;;;;21.86;37.25;100471.72;1084706;54;20061;-74
2022/08/10 01:49:02;;;;;;;;;;;;;;;21.84;37.37;100462.91;1084465;54;19977;-74
2022/08/10 01:50:06;;;;;;;;;;;;;;;21.84;37.31;100464.81;1085029;54;19977;-74
2022/08/10 01:51:15;;;;;;;;;;;;;;;21.87;37.19;100475.28;1085074;54;19946;-76
2022/08/10 01:52:17;;;;;;;;;;;;;;;21.80;37.78;100478.84;1084789;54;19946;-74
2022/08/10 01:53:23;;;;;;;;;;;;;;;21.79;37.75;100474.44;1085790;39;20338;-74
2022/08/10 01:54:26;;;;;;;;;;;;;;;21.79;37.54;100476.31;1084751;54;19947;-74
2022/08/10 01:55:30;;;;;;;;;;;;;;;21.79;37.79;100476.31;1084931;54;19973;-73
2022/08/10 01:56:33;;;;;;;;;;;;;;;21.78;37.95;100480.09;1084725;54;19954;-74
2022/08/10 01:57:39;;;;;;;;;;;;;;;21.72;38.34;100473.59;1084932;54;19958;-75
2022/08/10 01:58:41;;;;;;;;;;;;;;;21.65;38.50;100481.75;1084695;54;19970;-76
2022/08/10 01:59:46;;;;;;;;;;;;;;;21.67;38.05;100481.56;1084742;54;19969;-74
2022/08/10 02:00:50;;;;;;;;;;;;;;;21.68;38.17;100474.22;1084551;54;19975;-75
2022/08/10 02:01:57;;;;;;;;;;;;;;;21.68;37.99;100482.38;1084859;54;19953;-75
2022/08/10 02:03:00;;;;;;;;;;;;;;;21.62;38.02;100479.47;1084590;54;19951;-74
2022/08/10 02:04:08;;;;;;;;;;;;;;;21.62;38.21;100475.88;1084448;54;20516;-74
2022/08/10 02:05:10;;;;;;;;;;;;;;;21.61;38.24;100472.34;1085124;54;19938;-74
2022/08/10 02:06:15;;;;;;;;;;;;;;;21.56;38.56;100473.97;1085743;54;19938;-75
2022/08/10 02:07:17;;;;;;;;;;;;;;;21.57;38.25;100476.47;1085489;54;19947;-75
2022/08/10 02:08:22;;;;;;;;;;;;;;;21.61;38.24;100477.78;1085448;54;19977;-75
2022/08/10 02:09:25;;;;;;;;;;;;;;;21.57;38.29;100481.91;1084983;54;19938;-74
2022/08/10 02:10:30;;;;;;;;;;;;;;;21.55;38.28;100481.28;1085245;54;19970;-75
2022/08/10 02:11:31;;;;;;;;;;;;;;;21.57;38.21;100487.34;1085645;54;20022;-75
2022/08/10 02:12:37;;;;;;;;;;;;;;;21.57;38.43;100481.09;1085434;54;19959;-75
2022/08/10 02:13:38;;;;;;;;;;;;;;;21.56;38.08;100482.97;1085084;54;19947;-75
2022/08/10 02:14:44;;;;;;;;;;;;;;;21.58;37.93;100483.63;1084583;54;19962;-75
2022/08/10 02:15:47;;;;;;;;;;;;;;;21.58;37.95;100478.19;1084977;39;20752;-76
2022/08/10 02:16:54;;;;;;;;;;;;;;;21.58;38.29;100483.63;1084591;54;19950;-75
2022/08/10 02:17:58;;;;;;;;;;;;;;;21.56;38.21;100485.69;1084640;54;19951;-74
2022/08/10 02:19:03;;;;;;;;;;;;;;;21.53;38.33;100480.66;1084658;54;19946;-76
2022/08/10 02:20:06;;;;;;;;;;;;;;;21.56;38.02;100493.00;1084785;54;19951;-74
2022/08/10 02:21:11;;;;;;;;;;;;;;;21.55;37.98;100486.72;1084943;54;19946;-75
2022/08/10 02:22:13;;;;;;;;;;;;;;;21.53;38.29;100491.56;1084514;54;19962;-76
2022/08/10 02:23:18;;;;;;;;;;;;;;;21.53;38.39;100493.41;1084669;54;19947;-75
2022/08/10 02:24:20;;;;;;;;;;;;;;;21.49;38.27;100488.38;1084373;54;19951;-75
2022/08/10 02:25:26;;;;;;;;;;;;;;;21.50;38.16;100491.94;1084943;54;19994;-75
2022/08/10 02:26:28;;;;;;;;;;;;;;;21.51;38.13;100488.19;1084321;54;20472;-74
2022/08/10 02:27:33;;;;;;;;;;;;;;;21.50;38.56;100494.69;1083830;54;19966;-74
2022/08/10 02:28:34;;;;;;;;;;;;;;;21.50;38.40;100500.13;1083945;54;20051;-75
2022/08/10 02:29:39;;;;;;;;;;;;;;;21.48;38.35;100491.31;1084067;54;19985;-74
2022/08/10 02:30:41;;;;;;;;;;;;;;;21.50;38.23;100489.22;1084034;54;19955;-75
2022/08/10 02:31:45;;;;;;;;;;;;;;;21.41;39.21;100485.03;1084349;54;19962;-75
2022/08/10 02:32:50;;;;;;;;;;;;;;;21.35;39.22;100490.22;1084561;54;19953;-75
2022/08/10 02:33:56;;;;;;;;;;;;;;;21.33;39.08;100486.91;1084539;54;19950;-75
2022/08/10 02:34:57;;;;;;;;;;;;;;;21.31;39.11;100499.00;1084808;54;19975;-75
2022/08/10 02:36:02;;;;;;;;;;;;;;;21.14;39.71;100493.13;1085468;39;20345;-76
2022/08/10 02:37:04;;;;;;;;;;;;;;;21.07;39.75;100486.78;1085039;54;19947;-74
2022/08/10 02:38:09;;;;;;;;;;;;;;;21.01;40.22;100488.47;1084817;54;19946;-74
2022/08/10 02:39:12;;;;;;;;;;;;;;;21.00;40.00;100489.50;1084658;54;20652;-74
2022/08/10 02:40:16;;;;;;;;;;;;;;;20.99;40.01;100490.56;1084689;54;20441;-75
2022/08/10 02:41:22;;;;;;;;;;;;;;;21.03;39.85;100489.94;1084736;54;19942;-74
2022/08/10 02:42:24;;;;;;;;;;;;;;;21.00;40.17;100482.19;1084373;54;19973;-75
2022/08/10 02:43:30;;;;;;;;;;;;;;;21.02;40.18;100480.09;1084467;54;19951;-76
2022/08/10 02:44:34;;;;;;;;;;;;;;;20.99;40.29;100485.94;1084552;54;19955;-75
2022/08/10 02:45:41;;;;;;;;;;;;;;;20.96;40.33;100489.09;1084578;54;19957;-76
2022/08/10 02:46:45;;;;;;;;;;;;;;;20.94;40.19;100491.16;1084597;54;19955;-76
2022/08/10 02:47:51;;;;;;;;;;;;;;;20.89;40.63;100485.47;1084176;54;19947;-74
2022/08/10 02:48:58;;;;;;;;;;;;;;;20.87;40.50;100490.28;1085055;54;19950;-75
2022/08/10 02:50:07;;;;;;;;;;;;;;;20.84;40.51;100483.38;1084652;54;19947;-75
2022/08/10 02:51:10;;;;;;;;;;;;;;;20.84;40.51;100490.69;1085167;54;19947;-76
2022/08/10 02:52:18;;;;;;;;;;;;;;;20.83;40.69;100491.72;1084918;54;20437;-74
2022/08/10 02:53:21;;;;;;;;;;;;;;;20.79;40.78;100483.16;1084868;47;19966;-75
2022/08/10 02:54:26;;;;;;;;;;;;;;;20.80;40.82;100497.56;1084986;54;19970;-75
2022/08/10 02:55:30;;;;;;;;;;;;;;;20.81;40.56;100485.66;1084698;54;19958;-74
2022/08/10 02:56:37;;;;;;;;;;;;;;;20.83;40.39;100491.72;1084745;54;20057;-77
2022/08/10 02:57:39;;;;;;;;;;;;;;;20.84;40.37;100496.94;1084438;54;20544;-75
2022/08/10 02:58:46;;;;;;;;;;;;;;;20.81;40.78;100500.09;1084475;39;20352;-75
2022/08/10 02:59:50;;;;;;;;;;;;;;;20.85;40.70;100495.09;1084742;54;19951;-75
2022/08/10 03:00:55;;;;;;;;;;;;;;;20.84;40.51;100499.66;1084954;39;20443;-75
2022/08/10 03:01:59;;;;;;;;;;;;;;;20.87;40.33;100498.44;1084889;54;19955;-74
2022/08/10 03:03:05;;;;;;;;;;;;;;;20.85;40.35;100489.66;1084491;54;19981;-75
2022/08/10 03:04:14;;;;;;;;;;;;;;;20.84;40.61;100493.41;1084519;54;19950;-75
2022/08/10 03:05:19;;;;;;;;;;;;;;;20.76;40.68;100490.88;1084473;54;19970;-75
2022/08/10 03:06:24;;;;;;;;;;;;;;;20.78;40.62;100491.50;1084344;54;19953;-76
2022/08/10 03:07:30;;;;;;;;;;;;;;;20.72;40.84;100496.66;1084709;47;19947;-75
2022/08/10 03:08:35;;;;;;;;;;;;;;;20.75;40.80;100491.91;1085039;39;20344;-75
2022/08/10 03:09:41;;;;;;;;;;;;;;;20.69;41.11;100490.78;1084791;54;19958;-76
2022/08/10 03:10:43;;;;;;;;;;;;;;;20.70;40.83;100492.47;1085527;39;20492;-75
2022/08/10 03:11:48;;;;;;;;;;;;;;;20.66;41.01;100489.31;1085146;39;20426;-76
2022/08/10 03:12:50;;;;;;;;;;;;;;;20.60;41.43;100492.81;1084716;54;19946;-78
2022/08/10 03:13:56;;;;;;;;;;;;;;;20.53;41.58;100487.38;1084463;54;20013;-76
2022/08/10 03:14:58;;;;;;;;;;;;;;;20.53;41.58;100492.81;1084677;54;19946;-76
2022/08/10 03:16:03;;;;;;;;;;;;;;;20.54;41.31;100488.19;1084836;54;19962;-76
2022/08/10 03:17:05;;;;;;;;;;;;;;;20.50;41.70;100495.09;1084530;54;20033;-77
2022/08/10 03:18:11;;;;;;;;;;;;;;;20.55;41.18;100496.13;1084511;47;19955;-76
2022/08/10 03:19:15;;;;;;;;;;;;;;;20.53;41.24;100498.25;1084742;54;19950;-75
2022/08/10 03:20:21;;;;;;;;;;;;;;;20.51;41.69;100488.59;1084861;54;20038;-76
2022/08/10 03:21:23;;;;;;;;;;;;;;;20.53;41.28;100498.25;1084706;54;19946;-76
2022/08/10 03:22:28;;;;;;;;;;;;;;;20.60;41.10;100497.44;1084658;54;20034;-75
2022/08/10 03:23:29;;;;;;;;;;;;;;;20.61;41.19;100489.06;1084190;54;19985;-76
2022/08/10 03:24:35;;;;;;;;;;;;;;;20.62;41.50;100496.19;1084540;54;19954;-76
2022/08/10 03:25:36;;;;;;;;;;;;;;;20.60;41.37;100487.38;1084597;54;19951;-76
2022/08/10 03:26:40;;;;;;;;;;;;;;;20.59;41.29;100491.16;1084390;54;19970;-75
2022/08/10 03:27:42;;;;;;;;;;;;;;;20.57;41.51;100485.09;1084758;54;19947;-76
2022/08/10 03:28:46;;;;;;;;;;;;;;;20.53;41.60;100491.94;1084543;54;19955;-76
2022/08/10 03:29:48;;;;;;;;;;;;;;;20.46;41.20;100491.06;1084076;54;20446;-77
2022/08/10 03:30:52;;;;;;;;;;;;;;;20.39;41.53;100493.75;1085016;39;20575;-75
2022/08/10 03:31:54;;;;;;;;;;;;;;;20.33;41.68;100491.84;1084385;54;19950;-77
2022/08/10 03:33:00;;;;;;;;;;;;;;;20.28;41.59;100489.72;1084557;54;19985;-76
2022/08/10 03:34:05;;;;;;;;;;;;;;;20.25;41.99;100495.53;1084535;54;19974;-76
2022/08/10 03:35:10;;;;;;;;;;;;;;;20.25;41.69;100495.53;1085096;54;19950;-78
2022/08/10 03:36:16;;;;;;;;;;;;;;;20.19;42.12;100496.31;1084946;54;20034;-76
2022/08/10 03:37:17;;;;;;;;;;;;;;;20.18;42.21;100500.06;1084350;54;19945;-76
2022/08/10 03:38:21;;;;;;;;;;;;;;;20.15;42.12;100497.75;1084648;54;19946;-76
2022/08/10 03:39:23;;;;;;;;;;;;;;;20.12;42.34;100500.88;1084710;54;19946;-76
2022/08/10 03:40:28;;;;;;;;;;;;;;;20.12;42.32;100492.72;1085119;54;19962;-77
2022/08/10 03:41:33;;;;;;;;;;;;;;;20.17;42.17;100495.69;1084908;54;19962;-76
2022/08/10 03:42:38;;;;;;;;;;;;;;;20.24;41.82;100502.00;1085106;54;19977;-76
2022/08/10 03:43:41;;;;;;;;;;;;;;;20.30;41.81;100495.78;1084989;54;19970;-77
2022/08/10 03:44:46;;;;;;;;;;;;;;;20.30;41.96;100498.50;1085221;39;20369;-76
2022/08/10 03:45:48;;;;;;;;;;;;;;;20.27;42.08;100504.31;1084743;54;19970;-76
2022/08/10 03:46:53;;;;;;;;;;;;;;;20.27;41.72;100496.19;1085623;39;20357;-76
2022/08/10 03:47:55;;;;;;;;;;;;;;;20.32;41.77;100501.00;1085264;54;19962;-77
2022/08/10 03:49:02;;;;;;;;;;;;;;;20.33;41.83;100506.22;1085165;54;19953;-76
2022/08/10 03:50:04;;;;;;;;;;;;;;;20.35;41.77;100506.88;1084978;54;20476;-77
2022/08/10 03:51:12;;;;;;;;;;;;;;;20.36;41.66;100508.56;1085352;54;19947;-77
2022/08/10 03:52:13;;;;;;;;;;;;;;;20.36;41.74;100499.56;1086070;39;20361;-76
2022/08/10 03:53:18;;;;;;;;;;;;;;;20.37;41.65;100512.97;1084877;54;19947;-76
2022/08/10 03:54:22;;;;;;;;;;;;;;;20.40;41.54;100509.00;1084582;54;19952;-76
2022/08/10 03:55:24;;;;;;;;;;;;;;;20.40;41.84;100509.81;1084958;54;19946;-76
2022/08/10 03:56:28;;;;;;;;;;;;;;;20.33;42.14;100506.22;1084793;54;19969;-77
2022/08/10 03:57:29;;;;;;;;;;;;;;;20.35;41.63;100506.88;1084729;54;19950;-77
2022/08/10 03:58:33;;;;;;;;;;;;;;;20.33;41.91;100514.38;1084613;54;19954;-75
2022/08/10 03:59:35;;;;;;;;;;;;;;;20.24;42.23;100512.84;1084612;54;19946;-77
2022/08/10 04:00:40;;;;;;;;;;;;;;;20.20;42.35;100511.56;1084915;54;19961;-76
2022/08/10 04:01:41;;;;;;;;;;;;;;;20.18;42.31;100517.19;1085403;46;19958;-75
2022/08/10 04:02:46;;;;;;;;;;;;;;;20.18;42.59;100513.66;1085244;54;19969;-76
2022/08/10 04:03:47;;;;;;;;;;;;;;;20.17;42.51;100520.09;1084834;54;19946;-76
2022/08/10 04:04:51;;;;;;;;;;;;;;;20.18;42.57;100517.19;1084855;54;19947;-77
2022/08/10 04:05:52;;;;;;;;;;;;;;;20.14;42.75;100517.78;1084393;54;19970;-76
2022/08/10 04:07:00;;;;;;;;;;;;;;;20.12;42.64;100519.88;1085618;39;20459;-77
2022/08/10 04:08:01;;;;;;;;;;;;;;;20.14;42.40;100525.91;1084587;54;19939;-75
2022/08/10 04:09:05;;;;;;;;;;;;;;;20.18;42.09;100524.50;1085098;54;19946;-76
2022/08/10 04:10:09;;;;;;;;;;;;;;;20.20;42.19;100525.16;1084742;54;19961;-76
2022/08/10 04:11:11;;;;;;;;;;;;;;;20.15;42.77;100523.03;1084935;54;19939;-76
2022/08/10 04:12:15;;;;;;;;;;;;;;;20.14;42.62;100520.50;1085075;54;19953;-76
2022/08/10 04:13:16;;;;;;;;;;;;;;;20.16;42.41;100526.56;1084824;54;20481;-77
2022/08/10 04:14:20;;;;;;;;;;;;;;;20.12;42.72;100519.88;1084887;54;19939;-75
2022/08/10 04:15:23;;;;;;;;;;;;;;;20.16;42.13;100526.56;1084975;54;20026;-76
2022/08/10 04:16:27;;;;;;;;;;;;;;;20.07;42.89;100529.44;1084832;54;19946;-77
2022/08/10 04:17:28;;;;;;;;;;;;;;;20.09;42.64;100532.78;1085197;54;19947;-77
2022/08/10 04:18:32;;;;;;;;;;;;;;;20.09;42.76;100524.66;1085094;54;19965;-77
2022/08/10 04:19:36;;;;;;;;;;;;;;;20.13;42.68;100527.81;1086245;39;20322;-78
2022/08/10 04:20:42;;;;;;;;;;;;;;;20.09;42.82;100523.78;1085460;54;20826;-77
2022/08/10 04:21:46;;;;;;;;;;;;;;;20.12;42.41;100528.00;1084963;54;19938;-77
2022/08/10 04:22:54;;;;;;;;;;;;;;;20.12;42.46;100519.88;1084536;54;19938;-76
2022/08/10 04:23:57;;;;;;;;;;;;;;;20.13;42.53;100526.94;1084708;54;19947;-76
2022/08/10 04:25:02;;;;;;;;;;;;;;;20.04;42.85;100528.97;1084784;54;19950;-77
2022/08/10 04:26:06;;;;;;;;;;;;;;;19.99;42.63;100528.72;1084864;54;20062;-77
2022/08/10 04:27:08;;;;;;;;;;;;;;;20.01;42.46;100532.06;1085016;54;19970;-77
2022/08/10 04:28:12;;;;;;;;;;;;;;;20.00;43.09;100524.97;1085115;54;19954;-75
2022/08/10 04:29:13;;;;;;;;;;;;;;;19.99;42.89;100529.56;1084712;54;19943;-75
2022/08/10 04:30:17;;;;;;;;;;;;;;;19.97;43.05;100531.63;1084884;54;19957;-76
2022/08/10 04:31:19;;;;;;;;;;;;;;;19.92;42.90;100531.38;1084892;54;19985;-76
2022/08/10 04:32:23;;;;;;;;;;;;;;;19.97;42.81;100528.91;1085011;54;20237;-78
2022/08/10 04:33:28;;;;;;;;;;;;;;;19.97;42.85;100528.91;1084707;54;19970;-75
2022/08/10 04:34:31;;;;;;;;;;;;;;;20.02;42.53;100525.63;1084744;54;19962;-75
2022/08/10 04:35:36;;;;;;;;;;;;;;;20.00;42.63;100531.25;1084840;54;20022;-76
2022/08/10 04:36:38;;;;;;;;;;;;;;;20.06;42.60;100530.47;1084833;54;19951;-76
2022/08/10 04:37:42;;;;;;;;;;;;;;;20.05;42.87;100534.19;1085394;54;19958;-76
2022/08/10 04:38:48;;;;;;;;;;;;;;;20.13;42.23;100529.66;1084764;54;19939;-75
2022/08/10 04:39:52;;;;;;;;;;;;;;;20.16;42.39;100529.28;1084933;54;20177;-76
2022/08/10 04:40:56;;;;;;;;;;;;;;;20.17;42.60;100534.50;1084694;46;19954;-76
2022/08/10 04:41:57;;;;;;;;;;;;;;;20.16;42.52;100530.13;1084889;54;19951;-76
2022/08/10 04:43:02;;;;;;;;;;;;;;;20.07;42.77;100543.00;1084669;54;19946;-75
2022/08/10 04:44:03;;;;;;;;;;;;;;;19.99;42.88;100534.13;1084427;54;19947;-76
2022/08/10 04:45:10;;;;;;;;;;;;;;;19.96;43.02;100546.22;1084935;54;19969;-75
2022/08/10 04:46:12;;;;;;;;;;;;;;;20.02;42.82;100533.75;1084641;54;19947;-77
2022/08/10 04:47:15;;;;;;;;;;;;;;;20.07;42.50;100537.56;1084868;54;20058;-77
2022/08/10 04:48:18;;;;;;;;;;;;;;;20.05;42.97;100539.63;1084686;54;20436;-75
2022/08/10 04:49:22;;;;;;;;;;;;;;;19.99;43.04;100534.13;1084335;54;19951;-77
2022/08/10 04:50:23;;;;;;;;;;;;;;;20.00;42.84;100536.69;1084856;54;19946;-76
2022/08/10 04:51:27;;;;;;;;;;;;;;;20.01;43.03;100535.66;1084772;54;19939;-77
2022/08/10 04:52:28;;;;;;;;;;;;;;;20.03;42.94;100536.25;1084769;54;19946;-78
2022/08/10 04:53:32;;;;;;;;;;;;;;;20.00;42.94;100538.53;1084808;54;20003;-77
2022/08/10 04:54:35;;;;;;;;;;;;;;;19.93;42.88;100531.19;1085167;54;19970;-78
2022/08/10 04:55:39;;;;;;;;;;;;;;;19.91;42.83;100533.25;1086278;54;19950;-77
2022/08/10 04:56:40;;;;;;;;;;;;;;;19.83;43.17;100529.81;1086026;54;19990;-78
2022/08/10 04:57:44;;;;;;;;;;;;;;;19.79;43.23;100530.19;1086626;46;20000;-77
2022/08/10 04:58:46;;;;;;;;;;;;;;;19.74;43.51;100540.75;1086524;54;19970;-78
2022/08/10 04:59:50;;;;;;;;;;;;;;;19.71;43.76;100533.03;1085871;47;20456;-78
2022/08/10 05:00:51;;;;;;;;;;;;;;;19.77;43.72;100542.28;1085715;54;20491;-76
2022/08/10 05:01:55;;;;;;;;;;;;;;;19.82;43.71;100534.38;1085684;54;19981;-79
2022/08/10 05:02:56;;;;;;;;;;;;;;;19.85;43.30;100536.75;1085676;54;19970;-75
2022/08/10 05:04:00;;;;;;;;;;;;;;;19.85;43.52;100538.56;1086513;54;19956;-75
2022/08/10 05:05:01;;;;;;;;;;;;;;;19.89;42.99;100535.31;1087504;54;19951;-79
2022/08/10 05:06:05;;;;;;;;;;;;;;;19.90;43.08;100539.69;1087317;54;19951;-76
2022/08/10 05:07:07;;;;;;;;;;;;;;;19.90;43.56;100536.97;1087410;54;19946;-76
2022/08/10 05:08:11;;;;;;;;;;;;;;;19.85;43.07;100533.16;1087547;54;19946;-77
2022/08/10 05:09:13;;;;;;;;;;;;;;;19.85;43.35;100531.31;1085916;54;19974;-76
2022/08/10 05:10:19;;;;;;;;;;;;;;;19.87;43.17;100533.81;1085718;54;20429;-76
2022/08/10 05:11:20;;;;;;;;;;;;;;;19.92;43.09;100542.25;1084859;54;19947;-77
2022/08/10 05:12:24;;;;;;;;;;;;;;;19.96;43.19;100529.94;1085120;39;20400;-77
2022/08/10 05:13:28;;;;;;;;;;;;;;;19.91;43.23;100537.84;1084655;54;20792;-77
2022/08/10 05:14:29;;;;;;;;;;;;;;;19.85;43.34;100538.56;1084471;54;19947;-76
2022/08/10 05:15:33;;;;;;;;;;;;;;;19.82;43.45;100539.81;1084433;54;19958;-76
2022/08/10 05:16:34;;;;;;;;;;;;;;;19.82;43.53;100539.81;1085927;39;20364;-76
2022/08/10 05:17:38;;;;;;;;;;;;;;;19.84;43.05;100535.03;1084841;54;19947;-76
2022/08/10 05:18:40;;;;;;;;;;;;;;;19.86;43.36;100537.56;1084689;54;19947;-76
2022/08/10 05:19:43;;;;;;;;;;;;;;;19.86;43.31;100535.72;1084734;54;19954;-76
2022/08/10 05:20:47;;;;;;;;;;;;;;;19.82;43.38;100549.81;1084185;54;19990;-76
2022/08/10 05:21:48;;;;;;;;;;;;;;;19.83;43.20;100541.47;1084889;54;19954;-76
2022/08/10 05:22:52;;;;;;;;;;;;;;;19.85;43.01;100549.41;1084507;54;20677;-77
2022/08/10 05:23:54;;;;;;;;;;;;;;;19.87;43.23;100542.81;1084940;54;20410;-76
2022/08/10 05:24:58;;;;;;;;;;;;;;;19.90;43.09;100545.13;1085435;39;20472;-76
2022/08/10 05:26:04;;;;;;;;;;;;;;;19.99;42.99;100550.41;1084750;54;19970;-76
2022/08/10 05:27:05;;;;;;;;;;;;;;;20.02;43.09;100545.47;1085135;54;19947;-76
2022/08/10 05:28:09;;;;;;;;;;;;;;;20.00;42.99;100550.25;1084478;54;19951;-77
2022/08/10 05:29:11;;;;;;;;;;;;;;;19.95;42.82;100555.41;1085101;54;20532;-78
2022/08/10 05:30:16;;;;;;;;;;;;;;;19.93;43.47;100546.63;1085376;54;19969;-77
2022/08/10 05:31:17;;;;;;;;;;;;;;;19.86;43.34;100551.13;1084962;54;20011;-78
2022/08/10 05:32:21;;;;;;;;;;;;;;;19.80;43.36;100545.44;1084916;54;20053;-78
2022/08/10 05:33:22;;;;;;;;;;;;;;;19.79;43.68;100549.16;1084891;54;19953;-77
2022/08/10 05:34:29;;;;;;;;;;;;;;;19.82;43.47;100556.06;1085099;54;19946;-78
2022/08/10 05:35:31;;;;;;;;;;;;;;;19.85;43.48;100549.41;1084870;54;19947;-78
2022/08/10 05:36:35;;;;;;;;;;;;;;;19.88;43.43;100551.78;1085293;54;19977;-77
2022/08/10 05:37:37;;;;;;;;;;;;;;;19.87;43.57;100548.25;1085218;54;19946;-77
2022/08/10 05:38:41;;;;;;;;;;;;;;;19.92;43.29;100553.09;1085024;54;19947;-77
2022/08/10 05:39:43;;;;;;;;;;;;;;;19.93;43.15;100549.34;1085842;39;20702;-78
2022/08/10 05:40:47;;;;;;;;;;;;;;;19.90;43.16;100547.00;1085948;54;19950;-77
2022/08/10 05:41:52;;;;;;;;;;;;;;;19.91;43.47;100545.97;1086636;54;20007;-76
2022/08/10 05:42:56;;;;;;;;;;;;;;;19.89;43.55;100548.88;1087076;54;19957;-77
2022/08/10 05:43:57;;;;;;;;;;;;;;;19.92;43.31;100551.19;1086912;54;19947;-77
2022/08/10 05:45:01;;;;;;;;;;;;;;;19.92;43.83;100548.50;1086583;54;19951;-77
2022/08/10 05:46:02;;;;;;;;;;;;;;;19.93;43.51;100552.06;1086780;54;19951;-77
2022/08/10 05:47:06;;;;;;;;;;;;;;;19.92;43.21;100550.38;1086982;54;20035;-76
2022/08/10 05:48:07;;;;;;;;;;;;;;;19.90;43.81;100553.25;1087081;54;19938;-77
2022/08/10 05:49:11;;;;;;;;;;;;;;;19.94;43.79;100549.16;1087135;54;19950;-77
2022/08/10 05:50:13;;;;;;;;;;;;;;;19.93;43.75;100558.31;1087951;39;20409;-76
2022/08/10 05:51:17;;;;;;;;;;;;;;;19.96;43.32;100551.66;1087162;54;19962;-75
2022/08/10 05:52:19;;;;;;;;;;;;;;;20.05;43.59;100555.91;1087464;54;19951;-75
2022/08/10 05:53:23;;;;;;;;;;;;;;;20.02;43.54;100552.75;1086795;54;19947;-75
2022/08/10 05:54:25;;;;;;;;;;;;;;;20.03;43.51;100557.97;1086712;54;19954;-75
2022/08/10 05:55:31;;;;;;;;;;;;;;;20.01;43.39;100554.63;1086723;54;19950;-77
2022/08/10 05:56:33;;;;;;;;;;;;;;;19.96;43.58;100557.06;1085638;54;19938;-75
2022/08/10 05:57:40;;;;;;;;;;;;;;;20.01;43.68;100562.78;1086367;54;19947;-76
2022/08/10 05:58:42;;;;;;;;;;;;;;;20.09;43.60;100551.78;1086617;54;19947;-77
2022/08/10 05:59:49;;;;;;;;;;;;;;;20.14;43.06;100553.91;1086051;54;20041;-76
2022/08/10 06:00:52;;;;;;;;;;;;;;;20.18;43.05;100548.94;1085268;54;19946;-77
2022/08/10 06:01:58;;;;;;;;;;;;;;;20.21;43.01;100559.41;1085761;54;19999;-75
2022/08/10 06:03:05;;;;;;;;;;;;;;;20.31;43.12;100554.44;1086067;54;20445;-75
2022/08/10 06:04:08;;;;;;;;;;;;;;;20.33;43.08;100555.09;1085272;54;19946;-76
2022/08/10 06:05:13;;;;;;;;;;;;;;;20.34;43.04;100550.53;1084921;54;20042;-76
2022/08/10 06:06:17;;;;;;;;;;;;;;;20.33;43.01;100560.53;1084791;54;19946;-76
2022/08/10 06:07:22;;;;;;;;;;;;;;;20.35;43.04;100554.91;1084710;54;19969;-76
2022/08/10 06:08:27;;;;;;;;;;;;;;;20.36;43.06;100543.00;1084797;54;19958;-74
2022/08/10 06:09:31;;;;;;;;;;;;;;;20.34;43.25;100547.81;1084412;54;19958;-77
2022/08/10 06:10:36;;;;;;;;;;;;;;;20.35;43.12;100550.31;1084292;54;19946;-76
2022/08/10 06:11:38;;;;;;;;;;;;;;;20.37;43.25;100542.81;1084777;46;19954;-76
2022/08/10 06:12:46;;;;;;;;;;;;;;;20.41;42.81;100548.69;1084139;54;19970;-77
2022/08/10 06:15:05;;;;;;;;;;;;;;;20.51;42.68;100543.75;1085109;54;20448;-75
2022/08/10 06:16:08;;;;;;;;;;;;;;;20.55;42.86;100545.00;1085111;54;19950;-75
2022/08/10 06:17:13;;;;;;;;;;;;;;;20.57;42.87;100542.94;1084772;54;19951;-75
2022/08/10 06:18:15;;;;;;;;;;;;;;;20.65;42.64;100544.69;1085696;39;20349;-75
2022/08/10 06:19:18;;;;;;;;;;;;;;;20.68;42.59;100543.44;1084890;54;19958;-74
2022/08/10 06:20:20;;;;;;;;;;;;;;;20.66;42.71;100545.50;1084765;54;19946;-76
2022/08/10 06:21:24;;;;;;;;;;;;;;;20.65;42.71;100544.69;1085093;54;19939;-75
2022/08/10 06:22:26;;;;;;;;;;;;;;;20.64;42.60;100553.84;1084756;54;19946;-75
2022/08/10 06:23:30;;;;;;;;;;;;;;;20.65;42.73;100551.97;1084951;54;19938;-75
2022/08/10 06:24:35;;;;;;;;;;;;;;;20.69;42.54;100551.38;1085149;39;20640;-74
2022/08/10 06:25:39;;;;;;;;;;;;;;;20.74;42.42;100556.25;1084829;54;19998;-75
2022/08/10 06:26:42;;;;;;;;;;;;;;;20.83;42.73;100546.06;1085346;39;20373;-75
2022/08/10 06:27:47;;;;;;;;;;;;;;;20.82;41.97;100544.38;1085129;39;20613;-74
2022/08/10 06:28:54;;;;;;;;;;;;;;;20.79;42.51;100550.19;1084924;54;19951;-76
2022/08/10 06:29:58;;;;;;;;;;;;;;;20.83;42.29;100551.50;1084718;54;19939;-74
2022/08/10 06:30:59;;;;;;;;;;;;;;;20.85;42.38;100563.00;1084785;54;19991;-74
2022/08/10 06:32:04;;;;;;;;;;;;;;;20.89;41.99;100553.41;1084680;54;19950;-76
2022/08/10 06:33:06;;;;;;;;;;;;;;;20.92;42.08;100553.00;1085042;39;20344;-74
2022/08/10 06:34:11;;;;;;;;;;;;;;;20.98;42.09;100552.19;1084758;54;19946;-73